CheckWX is a tool to help pilots better visualize weather data.  It is not intended as a substitute for an official pre-flight weather briefing.

10:50:11 UTC

CYAM TAF
Sault Ste Marie Airport
Sault Ste Marie, Canada
TAF AMD CYAM 230917Z 2309/2320 VRB03KT P6SM SCT006 OVC012 TEMPO 2309/2314 3SM -SN BKN006 OVC012 PROB30 2309/2314 21/2SM -SN -FZDZ BR OVC004 FM231400 16005KT 4SM -SN OVC010 TEMPO 2314/2320 1SM -SN VV005 BECMG 2314/2316 11007KT RMK NXT FCST BY 231400Z

Jan-23@
09:00 UTC

Jan-23 @ 09:00 UTC

Jan-23@
14:00 UTC

Jan-23 @ 14:00 UTC

TAF AMD CYAM 230917Z 2309/2320 VRB03KT P6SM SCT006 OVC012
Wind
  • Variable at 3 KTS
Cloud Levels
  • Scattered at 600' AGL
  • Overcast at 1,200' AGL

Jan-23@
09:00 UTC

Jan-23 @ 09:00 UTC

Jan-23@
14:00 UTC

Jan-23 @ 14:00 UTC

PROB30 2309/2314 21/2SM -SN -FZDZ BR OVC004

Probable - 30% Likelihood

Probable - 30% Likelihood during this time.

Conditions
Light Snow, Light Freezing Light Drizzle, Mist
Cloud Levels
  • Overcast at 400' AGL

Jan-23@
09:00 UTC

Jan-23 @ 09:00 UTC

Jan-23@
14:00 UTC

Jan-23 @ 14:00 UTC

TEMPO 2309/2314 3SM -SN BKN006 OVC012

Temporary

Temporary Changes expected for less than half the time period

Conditions
Light Snow
Cloud Levels
  • Broken at 600' AGL
  • Overcast at 1,200' AGL

Jan-23@
14:00 UTC

Jan-23 @ 14:00 UTC

Jan-23@
20:00 UTC

Jan-23 @ 20:00 UTC

BECMG 2314/2316 11007KT RMK NXT FCST BY 231400Z

Becoming

Becoming Conditions expected by Thu, Jan 23, 2020 @ 16:00 UTC

Wind
  • 110° at 7 KTS
Conditions
Light Snow
Cloud Levels
  • Overcast at 1,000' AGL

Jan-23@
14:00 UTC

Jan-23 @ 14:00 UTC

Jan-23@
20:00 UTC

Jan-23 @ 20:00 UTC

FM231400 16005KT 4SM -SN OVC010

From

From Standard forecast or significant change

Wind
  • 160° at 5 KTS
Conditions
Light Snow
Cloud Levels
  • Overcast at 1,000' AGL

Jan-23@
14:00 UTC

Jan-23 @ 14:00 UTC

Jan-23@
20:00 UTC

Jan-23 @ 20:00 UTC

TEMPO 2314/2320 1SM -SN VV005

Temporary

Temporary Changes expected for less than half the time period

Conditions
Light Snow
Cloud Levels
  • Vertical visibility at 500' AGL